Time;durP1;ratioP1;P1;durP2;ratioP2;P2;SDS_P1;SDS_P2;PMS_P1;PMS_P2;Temp;Humidity;BMP_temperature;BMP_pressure;BME280_temperature;BME280_humidity;BME280_pressure;Samples;Min_cycle;Max_cycle;Signal;HPM_P1;HPM_P2
2021/10/01 00:01:15;;;;;;;0.50;0.35;;;22.70;54.60;;;;;;6289830;28;20028;-72
2021/10/01 00:04:15;;;;;;;0.80;0.40;;;22.70;54.60;;;;;;6291016;28;20028;-72
2021/10/01 00:07:17;;;;;;;0.52;0.30;;;22.70;54.60;;;;;;6296488;28;20032;-72
2021/10/01 00:10:18;;;;;;;0.30;0.20;;;22.70;54.60;;;;;;6315028;28;20052;-72
2021/10/01 00:13:18;;;;;;;0.77;0.40;;;22.70;54.60;;;;;;6300392;28;20082;-72
2021/10/01 00:16:19;;;;;;;0.40;0.30;;;22.70;54.60;;;;;;6297444;28;20036;-73
2021/10/01 00:19:21;;;;;;;0.85;0.52;;;22.70;54.60;;;;;;6292598;28;20029;-73
2021/10/01 00:22:22;;;;;;;0.28;0.20;;;22.70;54.60;;;;;;6295311;28;20028;-72
2021/10/01 00:25:22;;;;;;;0.40;0.30;;;22.70;54.60;;;;;;6308180;28;20031;-72
2021/10/01 00:28:23;;;;;;;0.32;0.28;;;22.70;54.60;;;;;;6312246;28;20028;-73
2021/10/01 00:31:23;;;;;;;0.68;0.40;;;22.70;54.70;;;;;;6300983;28;20036;-72
2021/10/01 00:34:24;;;;;;;0.52;0.30;;;22.70;54.60;;;;;;6319649;28;20036;-72
2021/10/01 00:37:24;;;;;;;0.40;0.30;;;22.70;54.60;;;;;;6307386;28;20079;-72
2021/10/01 00:40:26;;;;;;;0.30;0.30;;;22.70;54.70;;;;;;6309884;28;20048;-72
2021/10/01 00:43:27;;;;;;;0.25;0.25;;;22.70;54.70;;;;;;6292358;28;20035;-72
2021/10/01 00:46:28;;;;;;;0.60;0.40;;;22.70;54.70;;;;;;6296789;28;20032;-72
2021/10/01 00:49:28;;;;;;;0.63;0.40;;;22.70;54.70;;;;;;6319292;28;20043;-72
2021/10/01 00:52:29;;;;;;;0.40;0.30;;;22.70;54.70;;;;;;6310351;28;20059;-72
2021/10/01 00:55:30;;;;;;;0.50;0.30;;;22.70;54.70;;;;;;6318996;28;20032;-72
2021/10/01 00:58:30;;;;;;;0.30;0.30;;;22.70;54.70;;;;;;6300504;28;20035;-73
2021/10/01 01:01:31;;;;;;;0.43;0.35;;;22.70;54.70;;;;;;6294355;28;20036;-71
2021/10/01 01:04:33;;;;;;;0.30;0.30;;;22.70;54.80;;;;;;6318911;28;20024;-73
2021/10/01 01:07:49;;;;;;;0.75;0.40;;;22.70;54.80;;;;;;6311149;28;20107;-72
2021/10/01 01:11:06;;;;;;;0.20;0.20;;;22.70;54.80;;;;;;6293362;28;20162;-72
2021/10/01 01:14:19;;;;;;;0.28;0.28;;;22.70;54.80;;;;;;6308620;28;20438;-72
2021/10/01 01:17:24;;;;;;;0.22;0.20;;;22.70;54.80;;;;;;6296653;28;20031;-72
2021/10/01 01:20:47;;;;;;;0.57;0.40;;;22.70;54.80;;;;;;6318621;28;20126;-72
2021/10/01 01:24:13;;;;;;;0.65;0.30;;;22.70;54.80;;;;;;6315165;28;20038;-73
2021/10/01 01:27:26;;;;;;;0.82;0.38;;;22.70;54.90;;;;;;6295898;28;20016;-72
2021/10/01 01:30:35;;;;;;;0.52;0.40;;;22.70;54.90;;;;;;6292663;28;20296;-72
2021/10/01 01:33:38;;;;;;;0.30;0.30;;;22.70;54.90;;;;;;6315830;28;20328;-72
2021/10/01 01:36:39;;;;;;;0.30;0.30;;;22.70;54.90;;;;;;6299406;28;20364;-72
2021/10/01 01:39:40;;;;;;;1.60;0.32;;;22.70;54.90;;;;;;6317520;28;20103;-72
2021/10/01 01:42:43;;;;;;;0.30;0.30;;;22.70;54.90;;;;;;6308820;28;20043;-73
2021/10/01 01:45:46;;;;;;;0.45;0.30;;;22.70;54.90;;;;;;6317979;28;20498;-72
2021/10/01 01:48:46;;;;;;;0.25;0.25;;;22.70;54.80;;;;;;6311804;28;20035;-72
2021/10/01 01:51:49;;;;;;;0.30;0.25;;;22.70;54.90;;;;;;6312451;28;20086;-72
2021/10/01 01:54:50;;;;;;;0.68;0.32;;;22.70;54.90;;;;;;6292475;28;20355;-73
2021/10/01 01:57:52;;;;;;;0.47;0.35;;;22.70;54.90;;;;;;6305382;28;20028;-72
2021/10/01 02:00:53;;;;;;;0.68;0.30;;;22.70;54.90;;;;;;6317635;28;20035;-73
2021/10/01 02:03:54;;;;;;;0.38;0.38;;;22.70;54.90;;;;;;6296101;28;20590;-73
2021/10/01 02:06:55;;;;;;;0.50;0.20;;;22.70;54.90;;;;;;6295931;28;20098;-73
2021/10/01 02:09:57;;;;;;;0.20;0.20;;;22.70;54.90;;;;;;6317206;28;20276;-73
2021/10/01 02:13:00;;;;;;;0.17;0.17;;;22.70;54.90;;;;;;6304801;28;20037;-72
2021/10/01 02:16:02;;;;;;;0.38;0.30;;;22.70;55.00;;;;;;6306812;28;20075;-72
2021/10/01 02:19:04;;;;;;;0.20;0.20;;;22.70;54.90;;;;;;6290708;28;20123;-72
2021/10/01 02:22:06;;;;;;;0.52;0.30;;;22.70;55.00;;;;;;6291631;28;20020;-72
2021/10/01 02:25:34;;;;;;;0.20;0.20;;;22.70;55.00;;;;;;6296300;28;20028;-73
2021/10/01 02:28:37;;;;;;;0.20;0.20;;;22.70;55.00;;;;;;6315251;28;20055;-72
2021/10/01 02:31:53;;;;;;;0.80;0.32;;;22.70;55.00;;;;;;6309994;28;20093;-72
2021/10/01 02:34:54;;;;;;;0.25;0.25;;;22.70;55.70;;;;;;6291435;28;20080;-72
2021/10/01 02:37:55;;;;;;;0.13;0.13;;;22.70;55.00;;;;;;6307986;28;20028;-73
2021/10/01 02:40:56;;;;;;;0.65;0.38;;;22.70;55.10;;;;;;6316095;28;20186;-72
2021/10/01 02:43:56;;;;;;;0.20;0.20;;;22.70;55.10;;;;;;6292185;28;20033;-72
2021/10/01 02:46:57;;;;;;;0.45;0.30;;;22.70;55.10;;;;;;6297816;28;20441;-72
2021/10/01 02:50:00;;;;;;;0.43;0.30;;;22.70;55.10;;;;;;6315936;28;20039;-72
2021/10/01 02:53:17;;;;;;;0.20;0.20;;;22.70;55.10;;;;;;6307345;28;20744;-72
2021/10/01 02:56:23;;;;;;;0.30;0.20;;;22.70;55.10;;;;;;6316489;28;20028;-73
2021/10/01 02:59:28;;;;;;;0.20;0.20;;;22.70;55.10;;;;;;6291038;28;20324;-72
2021/10/01 03:02:28;;;;;;;0.30;0.20;;;22.70;55.10;;;;;;6299342;28;20031;-72
2021/10/01 03:05:29;;;;;;;0.30;0.30;;;22.70;55.10;;;;;;6315772;28;20443;-72
2021/10/01 03:08:31;;;;;;;0.40;0.20;;;22.70;55.10;;;;;;6303075;28;20407;-72
2021/10/01 03:11:33;;;;;;;0.20;0.20;;;22.70;55.10;;;;;;6290640;28;20044;-72
2021/10/01 03:14:36;;;;;;;0.52;0.30;;;22.70;55.10;;;;;;6303280;28;20024;-73
2021/10/01 03:17:37;;;;;;;0.22;0.20;;;22.70;55.10;;;;;;6294070;28;20020;-72
2021/10/01 03:20:38;;;;;;;0.32;0.20;;;22.70;55.10;;;;;;6315449;28;20509;-72
2021/10/01 03:23:40;;;;;;;0.47;0.38;;;22.70;55.10;;;;;;6304281;28;20020;-73
2021/10/01 03:26:40;;;;;;;0.30;0.30;;;22.70;55.20;;;;;;6300176;28;20070;-72
2021/10/01 03:29:41;;;;;;;0.30;0.30;;;22.70;55.80;;;;;;6291165;28;20052;-72
2021/10/01 03:32:42;;;;;;;0.40;0.17;;;22.70;55.10;;;;;;6291497;28;21504;-73
2021/10/01 03:35:43;;;;;;;0.35;0.30;;;22.60;55.00;;;;;;6299727;28;20025;-72
2021/10/01 03:38:47;;;;;;;0.30;0.25;;;22.70;55.10;;;;;;6313208;28;20024;-73
2021/10/01 03:41:47;;;;;;;0.43;0.20;;;22.70;55.10;;;;;;6309168;28;20025;-73
2021/10/01 03:44:48;;;;;;;1.02;0.40;;;22.60;55.00;;;;;;6290536;28;20032;-73
2021/10/01 03:47:48;;;;;;;0.15;0.15;;;22.70;55.10;;;;;;6304247;28;20083;-72
2021/10/01 03:50:49;;;;;;;0.17;0.13;;;22.70;55.10;;;;;;6314835;28;20538;-73
2021/10/01 03:53:53;;;;;;;0.20;0.20;;;22.70;55.10;;;;;;6293493;28;20492;-72
2021/10/01 03:56:53;;;;;;;0.30;0.20;;;22.70;55.10;;;;;;6294997;28;20024;-72
2021/10/01 04:00:40;;;;;;;0.60;0.40;;;22.70;55.10;;;;;;6315229;28;20105;-72
2021/10/01 04:03:41;;;;;;;0.68;0.30;;;22.70;55.10;;;;;;6297291;28;20032;-72
2021/10/01 04:06:42;;;;;;;0.35;0.30;;;22.70;55.10;;;;;;6302176;28;20527;-72
2021/10/01 04:09:42;;;;;;;0.50;0.30;;;22.70;55.10;;;;;;6294853;28;20630;-72
2021/10/01 04:12:44;;;;;;;0.30;0.30;;;22.60;55.10;;;;;;6303852;28;20339;-72
2021/10/01 04:15:45;;;;;;;0.30;0.30;;;22.60;55.00;;;;;;6304711;28;20053;-72
2021/10/01 04:18:45;;;;;;;0.20;0.20;;;22.60;55.10;;;;;;6301905;28;20544;-72
2021/10/01 04:21:46;;;;;;;0.52;0.30;;;22.70;55.10;;;;;;6294792;28;20024;-71
2021/10/01 04:24:47;;;;;;;0.20;0.20;;;22.60;55.10;;;;;;6314709;28;20024;-72
2021/10/01 04:27:47;;;;;;;0.40;0.30;;;22.60;55.10;;;;;;6302448;28;20276;-72
2021/10/01 04:30:50;;;;;;;0.28;0.22;;;22.70;55.10;;;;;;6294606;28;20047;-72
2021/10/01 04:33:50;;;;;;;0.45;0.30;;;22.60;55.10;;;;;;6319866;28;20031;-72
2021/10/01 04:36:51;;;;;;;0.20;0.20;;;22.70;55.10;;;;;;6311603;28;20036;-72
2021/10/01 04:39:52;;;;;;;0.30;0.30;;;22.60;55.10;;;;;;6294025;28;20115;-72
2021/10/01 04:42:53;;;;;;;0.43;0.20;;;22.70;55.20;;;;;;6309411;28;20032;-72
2021/10/01 04:45:54;;;;;;;0.20;0.20;;;22.70;55.10;;;;;;6319249;28;20093;-72
2021/10/01 04:48:55;;;;;;;0.20;0.20;;;22.70;55.10;;;;;;6295749;28;20055;-72
2021/10/01 04:51:56;;;;;;;0.30;0.20;;;22.70;55.10;;;;;;6299574;28;20682;-72
2021/10/01 04:54:56;;;;;;;0.63;0.30;;;22.60;55.10;;;;;;6295879;28;20020;-72
2021/10/01 04:57:57;;;;;;;0.43;0.40;;;22.60;55.10;;;;;;6307412;28;20448;-72
2021/10/01 05:01:01;;;;;;;0.85;0.30;;;22.70;55.20;;;;;;6316423;28;20031;-73
2021/10/01 05:04:02;;;;;;;3.25;0.30;;;22.60;55.10;;;;;;6315120;28;20490;-73
2021/10/01 05:07:03;;;;;;;1.00;0.30;;;22.60;55.10;;;;;;6314178;28;20082;-73
2021/10/01 05:10:05;;;;;;;0.75;0.30;;;22.60;55.00;;;;;;6275536;28;20136;-73
2021/10/01 05:13:06;;;;;;;1.48;0.40;;;22.60;54.90;;;;;;6283884;28;20044;-73
2021/10/01 05:16:06;;;;;;;0.77;0.47;;;22.60;55.00;;;;;;6288139;28;20047;-72
2021/10/01 05:19:07;;;;;;;1.50;0.30;;;22.60;55.10;;;;;;6291437;28;20024;-73
2021/10/01 05:22:07;;;;;;;2.85;0.30;;;22.60;55.10;;;;;;6290820;28;20028;-73
2021/10/01 05:25:09;;;;;;;6.10;0.43;;;22.70;55.20;;;;;;6285141;28;20029;-72
2021/10/01 05:28:09;;;;;;;1.15;0.38;;;22.60;55.10;;;;;;6281901;28;20091;-73
2021/10/01 05:31:10;;;;;;;1.98;0.40;;;22.70;55.20;;;;;;6290617;28;20313;-72
2021/10/01 05:34:11;;;;;;;0.40;0.30;;;22.60;55.20;;;;;;6282155;28;20051;-72
2021/10/01 05:37:12;;;;;;;1.50;0.40;;;22.70;55.30;;;;;;6283176;28;20025;-73
2021/10/01 05:40:13;;;;;;;0.35;0.20;;;22.60;55.20;;;;;;6290452;28;20659;-72
2021/10/01 05:43:14;;;;;;;0.95;0.50;;;22.60;55.20;;;;;;6290623;28;20479;-72
2021/10/01 05:46:14;;;;;;;1.33;0.40;;;22.60;55.30;;;;;;6289489;28;20021;-73
2021/10/01 05:49:27;;;;;;;1.33;0.70;;;22.70;55.50;;;;;;6290675;28;20481;-73
2021/10/01 05:55:34;;;;;;;1.60;0.50;;;22.70;55.50;;;;;;6291277;28;20585;-73
2021/10/01 05:58:36;;;;;;;5.68;0.43;;;22.70;55.40;;;;;;6290855;28;20025;-73
2021/10/01 06:01:36;;;;;;;1.42;0.50;;;22.70;55.30;;;;;;6284172;28;20465;-72
2021/10/01 06:04:37;;;;;;;1.75;0.55;;;22.70;55.40;;;;;;6280432;28;20391;-73
2021/10/01 06:07:38;;;;;;;0.93;0.50;;;22.70;55.40;;;;;;6292995;28;20036;-73
2021/10/01 06:10:39;;;;;;;2.53;0.70;;;22.70;55.40;;;;;;6292881;28;20044;-73
2021/10/01 06:13:39;;;;;;;1.05;0.57;;;22.70;55.30;;;;;;6292475;28;20045;-72
2021/10/01 06:16:40;;;;;;;1.50;0.60;;;22.60;55.30;;;;;;6292123;28;20025;-72
2021/10/01 06:19:42;;;;;;;1.70;0.45;;;22.70;55.40;;;;;;6292408;28;20051;-73
2021/10/01 06:22:43;;;;;;;0.50;0.50;;;22.70;55.40;;;;;;6292913;28;20094;-73
2021/10/01 06:25:45;;;;;;;0.68;0.50;;;22.60;55.30;;;;;;6292323;28;20099;-72
2021/10/01 06:28:45;;;;;;;0.93;0.55;;;22.60;55.30;;;;;;6292540;28;20020;-73
2021/10/01 06:31:46;;;;;;;0.80;0.50;;;22.70;55.40;;;;;;6291530;28;20044;-73
2021/10/01 06:34:47;;;;;;;0.70;0.50;;;22.70;55.40;;;;;;6292449;28;20487;-72
2021/10/01 06:37:47;;;;;;;4.15;0.50;;;22.70;55.40;;;;;;6292297;28;20059;-73
2021/10/01 06:40:48;;;;;;;0.90;0.50;;;22.70;55.40;;;;;;6292244;28;20032;-73
2021/10/01 06:43:56;;;;;;;0.95;0.50;;;22.60;55.30;;;;;;6292187;28;20036;-72
2021/10/01 06:47:09;;;;;;;0.60;0.50;;;22.70;55.40;;;;;;6292257;28;20112;-73
2021/10/01 06:50:45;;;;;;;1.73;0.52;;;22.60;55.40;;;;;;6291752;28;20039;-73
2021/10/01 08:19:47;;;;;;;0.77;0.43;;;22.70;55.80;;;;;;6290615;28;20407;-72
2021/10/01 08:22:48;;;;;;;0.77;0.50;;;22.70;55.80;;;;;;6289384;28;20032;-73
2021/10/01 08:25:49;;;;;;;1.83;0.55;;;22.60;55.70;;;;;;6289700;28;20025;-72
2021/10/01 08:28:49;;;;;;;2.20;0.50;;;22.70;55.80;;;;;;6290807;28;20450;-73
2021/10/01 08:31:50;;;;;;;1.83;0.73;;;22.60;55.80;;;;;;6290190;28;20047;-73
2021/10/01 08:34:51;;;;;;;1.70;0.60;;;22.60;55.70;;;;;;6290687;28;20021;-72
2021/10/01 08:37:54;;;;;;;1.60;0.47;;;22.70;55.80;;;;;;6290167;28;20437;-73
2021/10/01 08:40:55;;;;;;;1.05;0.50;;;22.60;55.70;;;;;;6290165;28;20016;-72
2021/10/01 08:43:56;;;;;;;0.40;0.30;;;22.70;55.80;;;;;;6290630;28;20033;-73
2021/10/01 08:47:03;;;;;;;1.77;0.60;;;22.60;55.80;;;;;;6290467;28;20684;-73
2021/10/01 08:50:06;;;;;;;3.55;0.50;;;22.60;55.70;;;;;;6292181;28;20499;-73
2021/10/01 08:53:09;;;;;;;0.57;0.50;;;22.60;55.70;;;;;;6294951;28;20480;-73
2021/10/01 08:56:11;;;;;;;1.08;0.40;;;22.60;55.70;;;;;;6295114;28;20040;-72
2021/10/01 08:59:12;;;;;;;0.65;0.40;;;22.60;55.70;;;;;;6288596;28;20029;-73
2021/10/01 09:02:12;;;;;;;1.45;0.43;;;22.60;55.80;;;;;;6278398;28;20484;-73
2021/10/01 09:05:13;;;;;;;1.75;0.40;;;22.60;55.80;;;;;;6296363;28;20032;-73
2021/10/01 09:08:17;;;;;;;1.27;0.40;;;22.60;55.80;;;;;;6296317;28;20020;-73
2021/10/01 09:11:25;;;;;;;3.50;0.43;;;22.60;55.90;;;;;;6295700;28;20048;-73
2021/10/01 09:14:25;;;;;;;1.58;0.52;;;22.60;55.90;;;;;;6289161;28;20098;-73
2021/10/01 09:17:28;;;;;;;0.77;0.40;;;22.70;56.00;;;;;;6288041;28;20032;-73
2021/10/01 09:20:29;;;;;;;0.98;0.40;;;22.60;55.80;;;;;;6295798;28;20051;-73
2021/10/01 09:23:31;;;;;;;0.80;0.52;;;22.70;55.90;;;;;;6296283;28;20021;-73
2021/10/01 09:26:34;;;;;;;2.42;0.50;;;22.60;55.80;;;;;;6295414;28;20405;-73
2021/10/01 09:29:36;;;;;;;1.08;0.40;;;22.60;55.70;;;;;;6295705;28;20024;-73
2021/10/01 09:32:37;;;;;;;0.93;0.40;;;22.70;55.90;;;;;;6295565;28;20098;-73
2021/10/01 09:35:41;;;;;;;0.80;0.40;;;22.60;55.70;;;;;;6295566;28;20031;-73
2021/10/01 09:38:42;;;;;;;0.93;0.50;;;22.60;55.80;;;;;;6295450;28;20033;-73
2021/10/01 09:41:42;;;;;;;1.45;0.52;;;22.60;55.70;;;;;;6295208;28;20276;-73
2021/10/01 09:44:56;;;;;;;0.77;0.30;;;22.70;55.80;;;;;;6295114;28;20020;-73
2021/10/01 09:48:06;;;;;;;1.05;0.47;;;22.70;55.80;;;;;;6277633;28;20032;-72
2021/10/01 09:51:10;;;;;;;3.10;0.40;;;22.60;55.70;;;;;;6282879;28;20037;-73
2021/10/01 09:54:13;;;;;;;0.77;0.47;;;22.60;55.70;;;;;;6292642;28;20028;-72
2021/10/01 09:57:13;;;;;;;5.63;0.40;;;22.60;55.70;;;;;;6293614;28;20024;-71
2021/10/01 10:00:40;;;;;;;1.08;0.40;;;22.70;56.00;;;;;;6293220;28;20345;-71
2021/10/01 10:03:40;;;;;;;0.95;0.68;;;22.70;55.60;;;;;;6292674;28;20067;-71
2021/10/01 10:06:45;;;;;;;3.53;0.60;;;22.70;55.80;;;;;;6293057;28;20480;-71
2021/10/01 10:09:52;;;;;;;3.80;0.95;;;22.70;54.90;;;;;;6278060;28;20504;-71
2021/10/01 10:12:52;;;;;;;2.88;0.73;;;22.70;53.50;;;;;;6280340;28;20178;-71
2021/10/01 10:16:14;;;;;;;3.60;0.88;;;22.60;53.90;;;;;;6274028;28;20025;-71
2021/10/01 10:19:20;;;;;;;3.50;1.17;;;22.60;53.90;;;;;;6290942;28;20024;-72
2021/10/01 10:22:21;;;;;;;2.08;1.00;;;22.70;54.10;;;;;;6294499;28;20477;-71
2021/10/01 10:25:22;;;;;;;1.70;1.00;;;22.60;54.10;;;;;;6294294;28;20029;-71
2021/10/01 10:28:22;;;;;;;6.60;1.08;;;22.60;54.20;;;;;;6294425;28;20383;-71
2021/10/01 10:31:29;;;;;;;2.33;0.95;;;22.60;54.30;;;;;;6294020;28;20032;-71
2021/10/01 10:34:30;;;;;;;2.72;1.00;;;22.60;54.40;;;;;;6294252;28;20386;-71
2021/10/01 10:37:48;;;;;;;1.75;0.82;;;22.70;54.60;;;;;;6293814;28;20031;-71
2021/10/01 10:40:48;;;;;;;3.22;1.00;;;22.60;54.50;;;;;;6294238;28;20556;-71
2021/10/01 10:43:49;;;;;;;1.40;0.80;;;22.60;54.60;;;;;;6294103;28;20040;-71
2021/10/01 10:46:50;;;;;;;2.25;0.82;;;22.60;54.60;;;;;;6293930;28;20533;-71
2021/10/01 10:49:50;;;;;;;4.60;1.08;;;22.60;54.60;;;;;;6293939;28;20046;-71
2021/10/01 10:53:13;;;;;;;2.90;0.90;;;22.60;54.60;;;;;;6293358;28;20464;-71
2021/10/01 10:56:16;;;;;;;4.30;1.10;;;22.60;54.60;;;;;;6293816;28;20028;-71
2021/10/01 10:59:31;;;;;;;2.28;0.80;;;22.60;54.70;;;;;;6293472;28;20107;-71
2021/10/01 11:02:44;;;;;;;1.88;0.80;;;22.60;54.70;;;;;;6293140;28;20031;-71
2021/10/01 11:06:05;;;;;;;1.10;0.77;;;22.70;54.80;;;;;;6293891;28;20024;-71
2021/10/01 11:09:14;;;;;;;1.52;0.77;;;22.70;54.90;;;;;;6293136;28;20075;-71
2021/10/01 11:12:23;;;;;;;2.08;0.98;;;22.60;54.80;;;;;;6292992;28;20040;-71
2021/10/01 11:15:24;;;;;;;1.48;0.80;;;22.70;54.90;;;;;;6278880;28;20018;-71
2021/10/01 11:18:26;;;;;;;2.42;0.80;;;22.60;54.80;;;;;;6277797;28;20138;-71
2021/10/01 11:21:27;;;;;;;2.70;0.90;;;22.60;54.90;;;;;;6293599;28;20131;-71
2021/10/01 11:24:28;;;;;;;1.52;0.90;;;22.60;54.80;;;;;;6293657;28;20588;-71
2021/10/01 11:27:28;;;;;;;1.08;0.70;;;22.70;54.90;;;;;;6292676;28;20036;-71
2021/10/01 11:30:29;;;;;;;1.05;0.75;;;22.60;54.80;;;;;;6293079;28;20052;-71
2021/10/01 11:33:30;;;;;;;1.27;0.80;;;22.70;54.90;;;;;;6293353;28;20033;-71
2021/10/01 11:36:31;;;;;;;2.17;0.80;;;22.60;54.80;;;;;;6293121;28;20106;-71
2021/10/01 11:39:41;;;;;;;1.08;0.85;;;22.60;54.70;;;;;;6273217;28;20301;-71
2021/10/01 11:42:43;;;;;;;1.38;0.82;;;22.60;54.80;;;;;;6290623;28;20037;-71
2021/10/01 11:45:45;;;;;;;1.20;0.73;;;22.60;54.90;;;;;;6286350;28;20025;-71
2021/10/01 11:48:46;;;;;;;1.77;0.57;;;22.60;55.00;;;;;;6289868;28;20028;-71
2021/10/01 11:52:17;;;;;;;1.85;0.85;;;22.70;55.30;;;;;;6292473;28;20037;-71
2021/10/01 11:55:18;;;;;;;2.53;0.75;;;22.60;55.10;;;;;;6288475;28;20032;-71
2021/10/01 11:58:19;;;;;;;3.03;0.85;;;22.70;55.10;;;;;;6292777;28;20372;-71
2021/10/01 12:01:20;;;;;;;1.00;0.80;;;22.70;55.10;;;;;;6292603;28;20614;-72
2021/10/01 12:04:28;;;;;;;1.52;0.82;;;22.60;55.10;;;;;;6292432;28;20077;-71
2021/10/01 12:07:29;;;;;;;1.38;0.80;;;22.70;55.10;;;;;;6292486;28;20032;-71
2021/10/01 12:10:35;;;;;;;3.55;1.10;;;22.70;55.10;;;;;;6292217;28;20051;-71
2021/10/01 12:13:37;;;;;;;3.60;0.68;;;22.70;55.10;;;;;;6292451;28;20036;-72
2021/10/01 12:16:39;;;;;;;1.42;0.52;;;22.70;55.10;;;;;;6278056;28;20395;-71
2021/10/01 12:19:40;;;;;;;0.95;0.57;;;22.70;55.10;;;;;;6292524;28;20024;-71
2021/10/01 12:22:40;;;;;;;1.38;0.63;;;22.70;55.10;;;;;;6292376;28;20033;-71
2021/10/01 12:25:41;;;;;;;1.42;0.90;;;22.70;55.10;;;;;;6295267;28;20047;-71
2021/10/01 12:28:52;;;;;;;1.40;0.63;;;22.70;55.10;;;;;;6287054;28;20933;-70
2021/10/01 12:32:01;;;;;;;1.10;0.73;;;22.70;55.10;;;;;;6283679;28;20056;-72
2021/10/01 12:35:04;;;;;;;1.52;0.80;;;22.70;55.20;;;;;;6294931;28;20029;-71
2021/10/01 12:38:05;;;;;;;2.60;0.57;;;22.70;55.10;;;;;;6295545;28;20052;-71
2021/10/01 12:41:11;;;;;;;1.80;0.73;;;22.70;55.10;;;;;;6295528;28;20032;-71
2021/10/01 12:44:16;;;;;;;1.33;0.60;;;22.70;55.10;;;;;;6294485;28;20016;-71
2021/10/01 12:47:20;;;;;;;;;;;22.70;55.10;;;;;;6288861;28;20048;-71
2021/10/01 12:50:29;;;;;;;1.70;0.70;;;22.70;55.10;;;;;;6290670;28;20387;-71
2021/10/01 12:53:29;;;;;;;0.98;0.70;;;22.70;55.20;;;;;;6292424;28;20051;-71
2021/10/01 12:56:30;;;;;;;0.50;0.50;;;22.70;55.20;;;;;;6291542;28;20388;-71
2021/10/01 12:59:48;;;;;;;0.95;0.60;;;22.70;55.40;;;;;;6293510;28;20389;-71
2021/10/01 13:02:51;;;;;;;2.15;0.60;;;22.70;55.20;;;;;;6292933;28;20024;-71
2021/10/01 13:05:52;;;;;;;2.88;0.82;;;22.80;55.30;;;;;;6291615;28;20036;-72
2021/10/01 13:08:52;;;;;;;2.13;0.60;;;22.80;55.20;;;;;;6290249;28;20071;-72
2021/10/01 13:11:53;;;;;;;7.57;1.00;;;22.80;55.20;;;;;;6292659;28;20025;-72
2021/10/01 13:15:13;;;;;;;1.10;0.60;;;22.80;55.10;;;;;;6282669;28;20391;-72
2021/10/01 13:18:19;;;;;;;0.98;0.60;;;22.80;55.30;;;;;;6291834;28;20044;-72
2021/10/01 13:21:24;;;;;;;1.95;0.70;;;22.80;55.10;;;;;;6285662;28;20019;-71
2021/10/01 13:24:27;;;;;;;1.40;0.50;;;22.80;55.80;;;;;;6287953;28;20384;-71
2021/10/01 13:27:28;;;;;;;1.40;0.65;;;22.80;55.20;;;;;;6294905;28;20032;-72
2021/10/01 13:30:28;;;;;;;1.10;0.50;;;22.80;55.30;;;;;;6285161;28;20025;-71
2021/10/01 13:33:29;;;;;;;1.23;0.65;;;22.80;55.30;;;;;;6285254;28;20037;-71
2021/10/01 13:36:31;;;;;;;0.98;0.50;;;22.80;55.20;;;;;;6289119;28;20032;-72
2021/10/01 13:39:32;;;;;;;2.30;0.70;;;22.80;55.10;;;;;;6292326;28;20352;-71
2021/10/01 13:42:33;;;;;;;2.20;0.60;;;22.80;55.10;;;;;;6292404;28;20543;-71
2021/10/01 13:45:34;;;;;;;0.80;0.55;;;22.80;55.20;;;;;;6283865;28;20025;-71
2021/10/01 13:48:35;;;;;;;1.50;0.68;;;22.80;55.10;;;;;;6286745;28;20028;-71
2021/10/01 13:51:35;;;;;;;1.13;0.50;;;22.80;55.10;;;;;;6291460;28;20044;-71
2021/10/01 13:54:36;;;;;;;0.98;0.57;;;22.80;55.20;;;;;;6291218;28;20380;-72
2021/10/01 13:57:36;;;;;;;1.05;0.75;;;22.80;55.30;;;;;;6291767;28;20080;-71
2021/10/01 14:00:38;;;;;;;2.58;0.63;;;22.80;55.20;;;;;;6291414;28;20020;-72
2021/10/01 14:03:38;;;;;;;0.90;0.50;;;22.80;55.30;;;;;;6291886;28;20103;-72
2021/10/01 14:06:39;;;;;;;1.63;0.60;;;22.80;55.30;;;;;;6285088;28;20037;-72
2021/10/01 14:09:40;;;;;;;3.63;0.47;;;22.80;55.50;;;;;;6285968;28;20544;-72
2021/10/01 14:12:41;;;;;;;0.80;0.50;;;22.80;55.30;;;;;;6292434;28;20032;-72
2021/10/01 14:15:44;;;;;;;1.45;0.75;;;22.80;55.30;;;;;;6282991;28;20021;-72
2021/10/01 14:18:44;;;;;;;1.90;0.50;;;22.80;55.20;;;;;;6300224;28;20103;-72
2021/10/01 14:21:45;;;;;;;0.98;0.50;;;22.80;55.20;;;;;;6287913;28;20039;-72
2021/10/01 14:24:46;;;;;;;2.53;0.73;;;22.80;55.30;;;;;;6281387;28;20029;-71
2021/10/01 14:27:47;;;;;;;4.00;0.80;;;22.80;55.30;;;;;;6292970;28;20031;-72
2021/10/01 14:30:47;;;;;;;1.13;0.50;;;22.80;55.30;;;;;;6291284;28;20508;-72
2021/10/01 14:33:48;;;;;;;0.85;0.60;;;22.80;55.30;;;;;;6292433;28;20029;-72
2021/10/01 14:36:49;;;;;;;1.40;0.50;;;22.80;55.30;;;;;;6292849;28;20027;-72
2021/10/01 14:39:50;;;;;;;1.95;0.73;;;22.80;55.30;;;;;;6274940;28;20067;-72
2021/10/01 14:42:51;;;;;;;2.05;0.80;;;22.80;55.20;;;;;;6283097;28;20051;-72
2021/10/01 14:45:52;;;;;;;2.10;0.80;;;22.80;54.50;;;;;;6272390;28;20057;-72
2021/10/01 14:48:52;;;;;;;1.52;0.70;;;22.80;53.70;;;;;;6288516;28;20460;-72
2021/10/01 14:51:53;;;;;;;1.58;0.68;;;22.80;54.00;;;;;;6276889;28;20054;-72
2021/10/01 14:54:54;;;;;;;2.35;0.70;;;22.80;54.00;;;;;;6288689;28;20085;-71
2021/10/01 14:57:54;;;;;;;2.90;1.10;;;22.80;54.00;;;;;;6280490;28;20671;-72
2021/10/01 15:00:55;;;;;;;1.95;0.60;;;22.80;54.00;;;;;;6289809;28;20505;-72
2021/10/01 15:03:55;;;;;;;1.23;0.70;;;22.90;54.10;;;;;;6292801;28;20070;-72
2021/10/01 15:06:56;;;;;;;0.95;0.52;;;22.80;54.20;;;;;;6288880;28;20404;-72
2021/10/01 15:09:56;;;;;;;0.77;0.60;;;22.80;54.20;;;;;;6283640;28;20253;-71
2021/10/01 15:12:57;;;;;;;1.10;0.70;;;22.80;54.10;;;;;;6297538;28;20046;-71
2021/10/01 15:15:57;;;;;;;0.93;0.60;;;22.90;54.10;;;;;;6281258;28;20100;-73
2021/10/01 15:18:58;;;;;;;6.03;0.52;;;22.80;54.20;;;;;;6292634;28;20435;-72
2021/10/01 15:21:59;;;;;;;1.42;0.60;;;22.90;54.20;;;;;;6290880;28;20093;-73
2021/10/01 15:24:59;;;;;;;1.88;0.65;;;22.80;54.10;;;;;;6282222;28;20032;-73
2021/10/01 15:28:00;;;;;;;1.83;0.70;;;22.90;54.30;;;;;;6291228;28;20027;-73
2021/10/01 15:31:01;;;;;;;0.90;0.60;;;22.90;54.30;;;;;;6291964;28;20032;-73
2021/10/01 15:34:01;;;;;;;3.17;0.75;;;22.80;54.00;;;;;;6290758;28;20066;-73
2021/10/01 15:37:02;;;;;;;3.85;0.80;;;22.80;53.00;;;;;;6292245;28;20016;-73
2021/10/01 15:40:03;;;;;;;1.13;0.68;;;22.80;52.90;;;;;;6291884;28;20025;-72
2021/10/01 15:43:04;;;;;;;0.95;0.63;;;22.80;52.30;;;;;;6292277;28;20457;-72
2021/10/01 15:46:05;;;;;;;1.98;1.02;;;22.80;53.50;;;;;;6289784;28;20060;-72
2021/10/01 15:49:06;;;;;;;2.13;1.08;;;22.80;54.20;;;;;;6291123;28;20021;-72
2021/10/01 15:52:06;;;;;;;1.75;0.70;;;22.80;54.10;;;;;;6291245;28;20514;-72
2021/10/01 15:55:11;;;;;;;2.95;0.85;;;22.80;54.20;;;;;;6291320;28;20028;-73
2021/10/01 15:58:11;;;;;;;2.30;1.00;;;22.80;54.00;;;;;;6290557;28;20080;-72
2021/10/01 16:01:16;;;;;;;1.73;0.90;;;22.80;53.90;;;;;;6293791;28;20267;-72
2021/10/01 16:04:17;;;;;;;2.53;0.93;;;22.80;53.80;;;;;;6296406;28;20031;-72
2021/10/01 16:07:17;;;;;;;1.85;0.95;;;22.80;53.20;;;;;;6296132;28;20036;-72
2021/10/01 16:10:18;;;;;;;2.95;1.15;;;22.80;53.20;;;;;;6290234;28;20067;-72
2021/10/01 16:13:19;;;;;;;1.85;1.17;;;22.80;53.30;;;;;;6295154;28;20415;-72
2021/10/01 16:16:20;;;;;;;4.72;1.00;;;22.80;52.50;;;;;;6287655;28;20119;-72
2021/10/01 16:19:22;;;;;;;2.63;1.20;;;22.80;53.00;;;;;;6295256;28;20032;-73
2021/10/01 16:22:23;;;;;;;2.28;1.10;;;22.80;51.30;;;;;;6292075;28;20480;-72
2021/10/01 16:25:25;;;;;;;2.08;0.90;;;22.80;52.80;;;;;;6280856;28;20024;-72
2021/10/01 16:28:25;;;;;;;2.08;1.10;;;22.80;52.80;;;;;;6293684;28;20418;-72
2021/10/01 16:31:26;;;;;;;2.60;1.30;;;22.70;52.60;;;;;;6292147;28;20032;-72
2021/10/01 16:34:27;;;;;;;6.35;1.30;;;22.70;52.40;;;;;;6291287;28;20572;-72
2021/10/01 16:37:28;;;;;;;2.15;1.20;;;22.70;52.20;;;;;;6293527;28;20452;-72
2021/10/01 16:40:28;;;;;;;3.45;1.30;;;22.70;52.10;;;;;;6284256;28;20362;-72
2021/10/01 16:43:29;;;;;;;2.97;1.50;;;22.70;51.90;;;;;;6287358;28;20120;-72
2021/10/01 16:46:29;;;;;;;1.92;1.40;;;22.70;51.70;;;;;;6292253;28;20405;-72
2021/10/01 16:49:30;;;;;;;4.47;1.40;;;22.70;51.70;;;;;;6291394;28;20042;-72
2021/10/01 16:52:32;;;;;;;2.40;1.50;;;22.70;51.60;;;;;;6282718;28;20465;-72
2021/10/01 16:55:33;;;;;;;2.40;1.55;;;22.70;51.40;;;;;;6290187;28;20499;-72
2021/10/01 16:58:34;;;;;;;1.45;1.00;;;22.70;51.20;;;;;;6293050;28;20052;-72
2021/10/01 17:01:34;;;;;;;4.35;1.70;;;22.70;51.30;;;;;;6281842;28;20021;-72
2021/10/01 17:04:35;;;;;;;2.72;1.63;;;22.70;51.80;;;;;;6271447;28;20040;-72
2021/10/01 17:07:35;;;;;;;6.60;1.80;;;22.70;51.00;;;;;;6291131;28;20043;-72
2021/10/01 17:10:36;;;;;;;4.93;1.83;;;22.70;51.00;;;;;;6282290;28;20075;-72
2021/10/01 17:13:37;;;;;;;4.68;2.10;;;22.70;50.60;;;;;;6292027;28;20036;-72
2021/10/01 17:16:37;;;;;;;3.85;1.90;;;22.70;50.20;;;;;;6287737;28;20021;-72
2021/10/01 17:19:38;;;;;;;4.32;2.05;;;22.70;49.10;;;;;;6292639;28;20036;-72
2021/10/01 17:22:39;;;;;;;6.95;2.08;;;22.70;49.50;;;;;;6292190;28;20020;-72